createdAt,value
2023-01-15T00:02:10.408Z,5.31
2023-01-15T00:04:39.814Z,5.27
2023-01-15T00:07:09.051Z,5.32
2023-01-15T00:09:37.687Z,5.30
2023-01-15T00:12:07.184Z,5.31
2023-01-15T00:14:35.835Z,5.28
2023-01-15T00:17:05.385Z,5.27
2023-01-15T00:19:35.566Z,5.27
2023-01-15T00:22:05.145Z,5.34
2023-01-15T00:24:43.541Z,5.45
2023-01-15T00:27:22.362Z,5.53
2023-01-15T00:29:51.258Z,5.65
2023-01-15T00:32:19.991Z,5.70
2023-01-15T00:34:50.187Z,5.72
2023-01-15T00:37:18.982Z,5.75
2023-01-15T00:39:47.656Z,5.78
2023-01-15T00:42:16.398Z,5.88
2023-01-15T00:44:45.561Z,5.89
2023-01-15T00:47:15.438Z,5.83
2023-01-15T00:49:44.667Z,5.82
2023-01-15T00:52:14.919Z,5.82
2023-01-15T00:54:44.661Z,5.81
2023-01-15T00:57:13.464Z,5.85
2023-01-15T00:59:42.315Z,5.92
2023-01-15T01:02:11.100Z,5.94
2023-01-15T01:04:39.994Z,5.97
2023-01-15T01:07:08.770Z,6.04
2023-01-15T01:09:39.111Z,6.10
2023-01-15T01:12:08.328Z,6.05
2023-01-15T01:14:38.480Z,6.18
2023-01-15T01:17:07.247Z,6.22
2023-01-15T01:19:36.175Z,6.24
2023-01-15T01:22:04.965Z,6.20
2023-01-15T01:24:33.771Z,6.14
2023-01-15T01:27:03.949Z,6.04
2023-01-15T01:29:32.707Z,6.03
2023-01-15T01:32:01.432Z,5.95
2023-01-15T01:34:30.257Z,5.91
2023-01-15T01:37:00.153Z,5.87
2023-01-15T01:39:29.472Z,5.90
2023-01-15T01:41:58.229Z,5.88
2023-01-15T01:44:48.801Z,5.84
2023-01-15T01:47:23.351Z,5.81
2023-01-15T01:49:59.171Z,5.76
2023-01-15T01:52:32.097Z,5.71
2023-01-15T01:55:03.395Z,5.68
2023-01-15T01:57:34.381Z,5.69
2023-01-15T02:00:07.277Z,5.71
2023-01-15T02:02:47.288Z,5.69
2023-01-15T02:05:23.294Z,5.73
2023-01-15T02:07:53.030Z,5.71
2023-01-15T02:10:21.868Z,5.69
2023-01-15T02:13:02.084Z,5.66
2023-01-15T02:15:37.342Z,5.65
2023-01-15T02:18:18.350Z,5.68
2023-01-15T02:20:52.082Z,5.73
2023-01-15T02:23:43.670Z,5.80
2023-01-15T02:26:42.913Z,5.82
2023-01-15T02:29:19.514Z,5.83
2023-01-15T02:31:53.766Z,5.86
2023-01-15T02:34:29.354Z,5.85
2023-01-15T02:37:05.021Z,5.86
2023-01-15T02:39:39.381Z,5.85
2023-01-15T02:42:11.234Z,5.84
2023-01-15T02:44:52.524Z,5.85
2023-01-15T02:47:27.602Z,5.83
2023-01-15T02:50:02.819Z,5.83
2023-01-15T02:52:43.647Z,5.84
2023-01-15T02:55:19.080Z,5.85
2023-01-15T02:57:51.957Z,5.88
2023-01-15T03:00:26.029Z,5.90
2023-01-15T03:03:02.491Z,5.93
2023-01-15T03:05:37.921Z,5.95
2023-01-15T03:08:10.143Z,5.96
2023-01-15T03:10:47.834Z,5.95
2023-01-15T03:13:22.591Z,5.96
2023-01-15T03:16:13.574Z,5.98
2023-01-15T03:18:47.424Z,5.99
2023-01-15T03:21:22.821Z,6.01
2023-01-15T03:23:57.742Z,6.03
2023-01-15T03:26:29.403Z,6.02
2023-01-15T03:29:00.819Z,6.01
2023-01-15T03:31:32.393Z,6.00
2023-01-15T03:34:01.219Z,5.99
2023-01-15T03:36:30.845Z,6.02
2023-01-15T03:39:03.680Z,6.02
2023-01-15T03:42:05.244Z,6.04
2023-01-15T03:44:42.481Z,6.04
2023-01-15T03:47:27.901Z,6.04
2023-01-15T03:50:08.145Z,6.08
2023-01-15T03:52:49.877Z,6.09
2023-01-15T03:55:26.232Z,6.09
2023-01-15T03:58:07.025Z,6.13
2023-01-15T04:00:46.623Z,6.14
2023-01-15T04:03:20.414Z,6.16
2023-01-15T04:05:50.540Z,6.18
2023-01-15T04:08:21.380Z,6.17
2023-01-15T04:10:54.700Z,6.14
2023-01-15T04:13:25.355Z,6.13
2023-01-15T04:15:55.636Z,6.13
2023-01-15T04:18:25.964Z,6.13
2023-01-15T04:20:56.103Z,6.12
2023-01-15T04:23:24.943Z,6.11
2023-01-15T04:25:53.752Z,6.11
2023-01-15T04:28:22.484Z,6.12
2023-01-15T04:30:51.315Z,6.15
2023-01-15T04:33:20.043Z,6.15
2023-01-15T04:35:50.251Z,6.16
2023-01-15T04:38:19.306Z,6.14
2023-01-15T04:40:58.175Z,6.15
2023-01-15T04:43:35.771Z,6.13
2023-01-15T04:46:05.027Z,6.11
2023-01-15T04:48:33.808Z,6.11
2023-01-15T04:51:06.854Z,6.09
2023-01-15T04:53:35.812Z,6.07
2023-01-15T04:56:06.317Z,6.07
2023-01-15T04:58:36.153Z,6.03
2023-01-15T05:01:06.678Z,5.99
2023-01-15T05:03:35.436Z,5.93
2023-01-15T05:06:06.601Z,5.88
2023-01-15T05:08:35.776Z,5.84
2023-01-15T05:11:05.216Z,5.79
2023-01-15T05:13:35.552Z,5.75
2023-01-15T05:16:11.393Z,5.72
2023-01-15T05:18:40.724Z,5.71
2023-01-15T05:21:20.901Z,5.67
2023-01-15T05:23:50.536Z,5.67
2023-01-15T05:26:19.180Z,5.65
2023-01-15T05:28:47.844Z,5.65
2023-01-15T05:31:19.355Z,5.67
2023-01-15T05:33:49.947Z,5.68
2023-01-15T05:36:22.611Z,5.70
2023-01-15T05:38:51.501Z,5.70
2023-01-15T05:41:32.105Z,5.68
2023-01-15T05:44:02.972Z,5.65
2023-01-15T05:46:31.885Z,5.64
2023-01-15T05:49:02.514Z,5.72
2023-01-15T05:51:33.169Z,5.76
2023-01-15T05:54:02.003Z,5.81
2023-01-15T05:56:30.742Z,5.82
2023-01-15T05:58:59.661Z,5.81
2023-01-15T06:01:28.426Z,5.82
2023-01-15T06:04:00.034Z,5.86
2023-01-15T06:06:29.200Z,5.84
2023-01-15T06:08:59.845Z,5.86
2023-01-15T06:11:28.927Z,5.86
2023-01-15T06:13:57.697Z,5.90
2023-01-15T06:16:26.799Z,5.90
2023-01-15T06:18:55.558Z,5.86
2023-01-15T06:21:24.350Z,5.83
2023-01-15T06:23:55.034Z,5.79
2023-01-15T06:26:25.249Z,5.79
2023-01-15T06:28:54.079Z,5.78
2023-01-15T06:31:27.316Z,5.78
2023-01-15T06:33:56.096Z,5.80
2023-01-15T06:36:29.157Z,5.82
2023-01-15T06:38:58.016Z,5.78
2023-01-15T06:41:38.410Z,5.81
2023-01-15T06:44:17.452Z,5.83
2023-01-15T06:46:57.865Z,5.84
2023-01-15T06:49:26.644Z,5.83
2023-01-15T06:51:55.413Z,5.81
2023-01-15T06:54:27.665Z,5.65
2023-01-15T06:56:57.953Z,5.84
2023-01-15T06:59:27.076Z,5.85
2023-01-15T07:01:55.773Z,5.89
2023-01-15T07:04:24.578Z,5.97
2023-01-15T07:06:53.354Z,6.01
2023-01-15T07:09:22.148Z,5.99
2023-01-15T07:11:50.871Z,5.97
2023-01-15T07:14:23.541Z,5.99
2023-01-15T07:16:53.238Z,6.01
2023-01-15T07:19:22.476Z,6.02
2023-01-15T07:21:51.344Z,6.00
2023-01-15T07:24:20.301Z,5.94
2023-01-15T07:26:49.241Z,5.90
2023-01-15T07:29:18.084Z,5.85
2023-01-15T07:31:48.235Z,5.82
2023-01-15T07:34:16.967Z,5.80
2023-01-15T07:36:45.666Z,5.81
2023-01-15T07:39:14.491Z,5.83
2023-01-15T07:41:53.489Z,5.84
2023-01-15T07:44:31.731Z,5.85
2023-01-15T07:47:11.743Z,5.86
2023-01-15T07:49:46.794Z,5.88
2023-01-15T07:52:17.364Z,5.86
2023-01-15T07:54:47.448Z,5.85
2023-01-15T07:57:19.306Z,5.87
2023-01-15T07:59:48.672Z,5.85
2023-01-15T08:02:19.101Z,5.81
2023-01-15T08:04:48.584Z,5.80
2023-01-15T08:07:18.281Z,5.80
2023-01-15T08:09:47.042Z,5.77
2023-01-15T08:12:25.453Z,5.76
2023-01-15T08:15:04.036Z,5.80
2023-01-15T08:17:34.976Z,5.81
2023-01-15T08:20:03.754Z,5.81
2023-01-15T08:22:32.400Z,5.83
2023-01-15T08:25:01.273Z,5.84
2023-01-15T08:27:32.225Z,5.84
2023-01-15T08:30:02.628Z,5.79
2023-01-15T08:32:35.790Z,5.83
2023-01-15T08:35:04.695Z,5.82
2023-01-15T08:37:33.301Z,5.81
2023-01-15T08:40:02.081Z,5.81
2023-01-15T08:42:30.965Z,5.83
2023-01-15T08:45:00.163Z,5.87
2023-01-15T08:47:28.873Z,5.87
2023-01-15T08:49:59.212Z,5.84
2023-01-15T08:52:28.006Z,5.93
2023-01-15T08:54:56.660Z,5.92
2023-01-15T08:57:25.446Z,5.87
2023-01-15T08:59:54.341Z,5.94
2023-01-15T09:02:23.025Z,5.94
2023-01-15T09:04:53.012Z,5.95
2023-01-15T09:07:23.343Z,5.87
2023-01-15T09:09:52.142Z,6.05
2023-01-15T09:12:22.833Z,6.12
